North Dighton, MA

41° 51' 30"N, 71° 08' 44"W, Elevation 95 ft.
Eastern Time

Hourly observations for the last 72 hours

Date Time Temperature (°F) Humi-
dity

(%)
Wind
(mph)
Pressure Rain (in) Sun
(W/m2)
UV ET
(in)
Air Dew 6 Hour 1 Hr 3 Hr 6 Hr Day
Alt
(in)
Sea
Level

(mb)
Max Min
22 08:00 76.7 70.1 76.8 69.3 80 N 2 G 4 29.84 1010.5 0.00 114 1.0 0.006
22 07:00 71.6 69.2 92 NNW 0 G 3 29.83 1010.1 0.00 77 0.0 0.005
22 06:00 69.4 66.7 91 NNW 0 G 3 29.81 1009.5 0.00 16 0.0 0.005
22 05:00 73.0 67.5 83 N 3 G 6 29.80 1009.0 0.00 0 0.0 0.004
22 04:00 71.1 68.3 91 NW 1 G 3 29.80 1009.0 0.00 0 0.0 0.003
22 03:00 73.0 69.2 88 NW 1 G 3 29.80 1009.0 0.00 0 0.0 0.002
22 02:00 75.7 69.5 83.0 74.8 81 WNW 2 G 4 29.80 1009.1 0.00 0 0.0 0.001
22 01:00 76.5 71.7 85 NW 1 G 4 29.78 1008.7 0.00 0 0.0 0.000
22 00:00 75.1 71.3 88 NW 0 G 2 29.78 1008.4 0.03 0 0.0 0.196
21 23:00 77.2 73.0 87 NW 2 G 4 29.77 1008.2 0.03 0 0.0 0.196
21 22:00 77.7 74.9 91 Calm 29.76 1007.9 0.03 0 0.0 0.196
21 21:00 79.5 76.3 90 Calm 29.75 1007.6 0.03 0 0.0 0.196
21 20:00 83.0 78.0 94.3 82.9 85 NW 1 G 2 29.73 1006.7 0.03 7 0.0 0.194
21 19:00 90.1 76.3 64 NW 3 G 8 29.71 1006.2 0.03 141 0.0 0.186
21 18:00 92.2 77.3 62 NW 5 G 10 29.69 1005.5 0.03 302 0.9 0.173
21 17:00 92.8 76.9 60 WNW 9 G 16 29.68 1005.3 0.03 339 2.2 0.154
21 16:00 93.2 75.2 56 WNW 13 G 19 29.68 1005.1 0.03 185 2.9 0.130
21 15:00 94.1 76.0 56 WNW 11 G 19 29.68 1005.2 0.03 779 6.1 0.103
21 14:00 93.3 78.8 93.5 81.7 63 W 8 G 15 29.68 1005.0 0.03 856 7.6 0.077
21 13:00 90.0 79.3 71 W 6 G 15 29.69 1005.4 0.03 933 8.5 0.059
21 12:00 85.7 77.3 76 W 3 G 10 29.71 1006.1 0.03 485 5.0 0.050
21 11:00 87.0 75.2 68 W 10 G 15 29.73 1006.7 0.03 221 2.2 0.034
21 10:00 87.6 75.7 68 W 10 G 19 29.74 1007.1 0.03 436 4.8 0.018
21 09:00 86.6 78.5 77 W 6 G 11 29.72 1006.5 0.03 457 2.9 0.007
21 08:00 81.8 76.1 82.4 73.1 83 W 5 G 8 29.73 1006.7 0.03 141 1.0 0.001
21 07:00 76.1 74.2 94 Calm 29.71 1006.2 0.03 69 0.0 0.000
21 06:00 73.2 72.0 96 Calm 29.71 1006.1 0.03 33 0.0 0.000
21 05:00 73.9 72.7 96 W 0 G 2 29.71 1006.1 0.03 0 0.0 0.000
21 04:00 75.1 73.6 95 Calm 29.70 1005.8 0.03 0 0.0 0.000
21 03:00 77.2 75.0 93 Calm 29.71 1006.0 0.03 0 0.0 0.000
21 02:00 78.0 75.8 86.5 78.0 93 W 2 G 6 29.72 1006.3 0.09 0.09 0.03 0 0.0 0.000
21 01:00 79.4 76.5 91 WSW 0 G 6 29.71 1006.1 0.03 0.03 0 0.0 0.000
21 00:00 80.2 77.0 90 WSW 0 G 2 29.72 1006.3 0.06 0.06 0 0.0 0.177
20 23:00 81.4 77.5 88 Calm 29.73 1006.8 0.00 0 0.0 0.176
20 22:00 82.9 77.9 85 SSW 3 G 4 29.74 1007.2 0.00 0 0.0 0.175
20 21:00 83.9 78.9 85 SSW 0 G 3 29.75 1007.4 0.00 0 0.0 0.175
20 20:00 86.5 80.0 93.8 86.5 81 SSW 2 G 4 29.74 1007.0 0.00 9 0.0 0.173
20 19:00 88.2 81.3 80 WSW 1 G 5 29.72 1006.4 0.00 107 0.0 0.169
20 18:00 91.1 81.7 74 S 3 G 6 29.70 1005.8 0.00 81 0.7 0.160
20 17:00 92.9 79.9 66 WSW 2 G 8 29.72 1006.4 0.00 165 1.6 0.144
20 16:00 93.1 81.0 68 SSW 2 G 10 29.73 1006.7 0.00 661 4.0 0.127
20 15:00 91.4 79.8 69 W 5 G 9 29.75 1007.3 0.00 387 3.7 0.111
20 14:00 91.3 80.2 92.8 82.4 70 W 5 G 9 29.76 1007.8 0.00 329 4.1 0.092
20 13:00 91.3 80.6 71 WNW 4 G 8 29.77 1008.1 0.00 724 6.9 0.073
20 12:00 90.5 80.7 73 W 6 G 10 29.78 1008.6 0.00 874 7.4 0.053
20 11:00 90.0 78.9 70 WNW 2 G 10 29.79 1008.8 0.00 715 6.3 0.033
20 10:00 88.4 78.7 73 W 9 G 13 29.79 1008.9 0.00 626 4.7 0.018
20 09:00 86.0 79.5 81 W 3 G 8 29.80 1009.0 0.00 452 2.9 0.007
20 08:00 82.4 78.5 82.4 75.4 88 W 2 G 9 29.79 1008.9 0.00 278 1.2 0.001
20 07:00 77.0 76.1 97 WSW 0 G 3 29.80 1009.1 0.00 91 0.0 0.000
20 06:00 76.0 74.8 96 WSW 0 G 2 29.77 1008.3 0.00 19 0.0 0.000
20 05:00 75.9 74.7 96 W 3 G 8 29.76 1007.9 0.00 0 0.0 0.000
20 04:00 75.7 74.5 96 W 2 G 8 29.76 1007.8 0.00 0 0.0 0.000
20 03:00 75.6 74.1 95 SSW 0 G 2 29.75 1007.5 0.00 0 0.0 0.000
20 02:00 76.0 74.5 78.1 75.8 95 W 1 G 6 29.76 1008.0 0.00 0 0.0 0.000
20 01:00 76.1 74.2 94 SSW 1 G 5 29.77 1008.1 0.00 0 0.0 0.000
20 00:00 76.4 74.5 94 WSW 1 G 7 29.78 1008.5 0.01 0 0.0 0.173
19 23:00 76.4 74.2 93 WSW 2 G 9 29.78 1008.7 0.01 0 0.0 0.173
19 22:00 76.7 74.2 92 SSW 1 G 4 29.79 1008.8 0.01 0 0.0 0.173
19 21:00 77.1 73.9 90 SSW 2 G 4 29.78 1008.6 0.01 0 0.0 0.173
19 20:00 78.1 73.9 85.8 78.0 87 S 4 G 9 29.77 1008.2 0.01 9 0.0 0.171
19 19:00 80.9 75.6 84 S 3 G 8 29.77 1008.3 0.01 114 0.0 0.165
19 18:00 81.9 75.5 81 S 6 G 12 29.77 1008.3 0.01 302 1.0 0.154
19 17:00 82.9 75.7 79 S 5 G 12 29.78 1008.5 0.01 512 2.3 0.140
19 16:00 85.7 77.3 76 SW 3 G 8 29.79 1008.8 0.01 599 3.9 0.122
19 15:00 85.2 76.8 76 S 3 G 12 29.79 1008.7 0.01 671 5.4 0.100
19 14:00 84.4 76.0 84.5 65.2 76 W 4 G 11 29.81 1009.7 0.01 0.01 861 7.6 0.076
19 13:00 82.0 74.5 78 WSW 4 G 8 29.83 1010.3 0.01 895 8.3 0.053
19 12:00 80.0 72.9 79 W 3 G 12 29.85 1010.9 0.01 877 8.0 0.032
19 11:00 76.5 70.2 81 SW 2 G 6 29.86 1011.2 0.01 0.01 805 6.6 0.016
19 10:00 70.5 64.7 82 NW 2 G 3 29.88 1011.9 0.01 387 2.9 0.008
19 09:00 68.1 64.1 87 NW 2 G 4 29.88 1011.7 0.01 0.01 287 1.8 0.003

Data generated by WxSolution Version 1.9.1.7, Build 2018.11.24.